• Join FlightAware (Why Join?)
  • Login
  • US Flag 
Gobble Gobble! 
07:27PM EST


 

Airport Tracker/Info


-or-


 

Live Flight TrackerFlight Track Log ✈ CPT1940 ✈ 25-Oct-2013 ✈ KBFF - KCPR

Flight Track Log - Related Links

Times and Time Zones

All times are in EDT time to prevent confusion due to time zone crossing. See the CPT1940 flight status page for this flight to view local times or setup timezone preferences in your user account.

Time Position Orientation Groundspeed Altitude Reporting Facility
EDT Latitude Longitude Course Direction KTS MPH feet Rate Location/Type
10:10AM 41.9372 -103.6981 310° West 108 124 7,400  Level Denver Center
10:11AM 41.9567 -103.7272 312° West 109 125 8,300 780 Climbing Denver Center
10:12AM 41.9783 -103.7606 311° West 107 123 9,100 720 Climbing Denver Center
10:13AM 41.9972 -103.7894 311° West 107 123 9,800 420 Climbing Denver Center
10:14AM 42.0208 -103.8275 310° West 114 131 10,000 60 Climbing Denver Center
10:15AM 42.0444 -103.8644 311° West 127 146 10,000  Level Denver Center
10:16AM 42.0739 -103.9094 311° West 138 159 10,000  Level Denver Center
10:17AM 42.0986 -103.9475 311° West 141 162 10,000  Level Denver Center
10:18AM 42.1219 -103.9850 310° West 139 160 10,000  Level Denver Center
10:19AM 42.1500 -104.0289 311° West 137 158 10,000  Level Denver Center
10:20AM 42.1750 -104.0675 311° West 140 161 10,000  Level Denver Center
10:21AM 42.2028 -104.1117 310° West 139 160 10,000  Level Denver Center
10:22AM 42.2264 -104.1492 310° West 137 158 10,000  Level Denver Center
10:23AM 42.2558 -104.1936 312° West 140 161 10,000  Level Denver Center
10:24AM 42.2792 -104.2314 310° West 139 160 10,000  Level Denver Center
10:25AM 42.3033 -104.2700 310° West 139 160 10,000  Level Denver Center
10:26AM 42.3314 -104.3147 310° West 140 161 10,000  Level Denver Center
10:27AM 42.3558 -104.3531 311° West 139 160 10,000  Level Denver Center
10:28AM 42.3839 -104.3975 311° West 139 160 10,000  Level Denver Center
10:29AM 42.4083 -104.4358 311° West 140 161 10,000  Level Denver Center
10:30AM 42.4364 -104.4808 310° West 139 160 10,000  Level Denver Center
10:31AM 42.4603 -104.5189 310° West 139 160 10,000  Level Denver Center
10:32AM 42.4886 -104.5642 310° West 139 160 10,000  Level Denver Center
10:33AM 42.5122 -104.6031 309° West 139 160 10,000  Level Denver Center
10:34AM 42.5275 -104.6489 294° West 140 161 10,000  Level Denver Center
10:35AM 42.5389 -104.7053 285° West 138 159 10,000  Level Denver Center
10:36AM 42.5497 -104.7519 288° West 137 158 10,000  Level Denver Center
10:37AM 42.5617 -104.8072 286° West 136 157 10,000  Level Denver Center
10:38AM 42.5722 -104.8536 287° West 135 155 10,000  Level Denver Center
10:39AM 42.5842 -104.9086 286° West 136 157 10,000  Level Denver Center
10:40AM 42.5944 -104.9558 286° West 136 157 10,000  Level Denver Center
10:41AM 42.6044 -105.0033 286° West 136 157 10,000  Level Denver Center
10:42AM 42.6164 -105.0589 286° West 137 158 10,000  Level Denver Center
10:44AM 42.6272 -105.1061 287° West 137 158 10,000  Level Denver Center
10:45AM 42.6392 -105.1614 286° West 137 158 10,000  Level Denver Center
10:46AM 42.6494 -105.2083 287° West 136 157 10,000  Level Denver Center
10:47AM 42.6611 -105.2642 286° West 137 158 10,000  Level Denver Center
10:48AM 42.6714 -105.3122 286° West 137 158 10,000  Level Denver Center
10:49AM 42.6833 -105.3669 287° West 136 157 10,000  Level Denver Center
10:50AM 42.6925 -105.4144 285° West 136 157 10,000  Level Denver Center
10:51AM 42.7050 -105.4700 287° West 137 158 10,000  Level Denver Center
10:52AM 42.7142 -105.5178 285° West 136 157 10,000  Level Denver Center
10:53AM 42.7269 -105.5733 287° West 138 159 10,000  Level Denver Center
10:54AM 42.7375 -105.6211 287° West 137 158 10,000  Level Denver Center
10:55AM 42.7489 -105.6772 285° West 138 159 10,000  Level Denver Center
10:56AM 42.7586 -105.7253 285° West 137 158 10,000 -120 Level Denver Center
10:57AM 42.7683 -105.7747 285° West 139 160 9,800 -420 Descending Denver Center
10:58AM 42.7825 -105.8336 288° West 143 165 9,200 -420 Descending Denver Center
10:59AM 42.7956 -105.8864 289° West 150 173 9,000 -120 Descending Denver Center
11:00AM 42.8136 -105.9417 294° West 146 168 9,000  Level Denver Center
11:01AM 42.8322 -105.9847 301° West 141 162 9,000  Level Denver Center
11:02AM 42.8461 -106.0417 288° West 141 162 9,000  Level Denver Center
11:03AM 42.8544 -106.0917 283° West 141 162 9,000 -240 Level Denver Center
11:04AM 42.8675 -106.1531 286° West 147 169 8,600 -540 Descending Denver Center
11:05AM 42.8794 -106.2078 287° West 153 176 8,000 -600 Descending Denver Center
11:06AM 42.8928 -106.2747 285° West 160 184 7,400 -480 Descending Denver Center
11:07AM 42.9019 -106.3281 283° West 157 181 7,000 -300 Descending Denver Center
11:08AM 42.9122 -106.3756 286° West 128 147 6,800 -540 Descending Denver Center
11:10AM 42.9242 -106.4372 285° West 95 109 5,700 -780 Descending Denver Center
11:12AM 42.9000 -106.4500 289° West  Level FlightAware Approximate
11:19AM 42.9080 -106.4644 289° West  Level Estimated